sensor_id;sensor_type;location;lat;lon;timestamp;P1;durP1;ratioP1;P2;durP2;ratioP2
68089;SDS011;54880;50.986;6.990;2022-07-29T00:01:58;9.60;;;2.20;;
68089;SDS011;54880;50.986;6.990;2022-07-29T00:04:24;5.77;;;1.83;;
68089;SDS011;54880;50.986;6.990;2022-07-29T00:06:49;12.40;;;2.17;;
68089;SDS011;54880;50.986;6.990;2022-07-29T00:09:14;7.27;;;1.90;;
68089;SDS011;54880;50.986;6.990;2022-07-29T00:11:39;6.13;;;1.90;;
68089;SDS011;54880;50.986;6.990;2022-07-29T00:14:05;9.23;;;2.10;;
68089;SDS011;54880;50.986;6.990;2022-07-29T00:16:30;7.43;;;2.23;;
68089;SDS011;54880;50.986;6.990;2022-07-29T00:18:55;6.87;;;2.00;;
68089;SDS011;54880;50.986;6.990;2022-07-29T00:21:20;7.03;;;2.50;;
68089;SDS011;54880;50.986;6.990;2022-07-29T00:23:46;6.13;;;1.80;;
68089;SDS011;54880;50.986;6.990;2022-07-29T00:26:11;8.27;;;2.17;;
68089;SDS011;54880;50.986;6.990;2022-07-29T00:28:36;7.80;;;1.97;;
68089;SDS011;54880;50.986;6.990;2022-07-29T00:31:02;6.40;;;1.90;;
68089;SDS011;54880;50.986;6.990;2022-07-29T00:33:28;8.45;;;2.10;;
68089;SDS011;54880;50.986;6.990;2022-07-29T00:35:53;5.90;;;1.92;;
68089;SDS011;54880;50.986;6.990;2022-07-29T00:38:18;7.97;;;2.10;;
68089;SDS011;54880;50.986;6.990;2022-07-29T00:40:45;11.90;;;2.10;;
68089;SDS011;54880;50.986;6.990;2022-07-29T00:43:11;7.90;;;1.80;;
68089;SDS011;54880;50.986;6.990;2022-07-29T00:45:36;7.13;;;1.90;;
68089;SDS011;54880;50.986;6.990;2022-07-29T00:48:02;6.33;;;1.60;;
68089;SDS011;54880;50.986;6.990;2022-07-29T00:50:28;6.57;;;1.83;;
68089;SDS011;54880;50.986;6.990;2022-07-29T00:52:53;6.67;;;1.80;;
68089;SDS011;54880;50.986;6.990;2022-07-29T00:55:19;7.90;;;1.50;;
68089;SDS011;54880;50.986;6.990;2022-07-29T00:57:44;7.00;;;2.00;;
68089;SDS011;54880;50.986;6.990;2022-07-29T01:00:11;7.90;;;2.10;;
68089;SDS011;54880;50.986;6.990;2022-07-29T01:02:36;4.82;;;1.80;;
68089;SDS011;54880;50.986;6.990;2022-07-29T01:05:02;8.40;;;1.70;;
68089;SDS011;54880;50.986;6.990;2022-07-29T01:07:28;6.78;;;1.95;;
68089;SDS011;54880;50.986;6.990;2022-07-29T01:09:55;7.37;;;1.73;;
68089;SDS011;54880;50.986;6.990;2022-07-29T01:12:22;7.55;;;1.80;;
68089;SDS011;54880;50.986;6.990;2022-07-29T01:14:49;8.35;;;1.88;;
68089;SDS011;54880;50.986;6.990;2022-07-29T01:17:20;6.55;;;1.83;;
68089;SDS011;54880;50.986;6.990;2022-07-29T01:23:00;6.07;;;1.97;;
68089;SDS011;54880;50.986;6.990;2022-07-29T01:30:06;8.30;;;1.83;;
68089;SDS011;54880;50.986;6.990;2022-07-29T01:32:33;6.13;;;1.83;;
68089;SDS011;54880;50.986;6.990;2022-07-29T01:35:02;7.13;;;1.90;;
68089;SDS011;54880;50.986;6.990;2022-07-29T01:39:54;8.17;;;1.70;;
68089;SDS011;54880;50.986;6.990;2022-07-29T01:42:23;9.75;;;2.35;;
68089;SDS011;54880;50.986;6.990;2022-07-29T01:45:00;6.45;;;1.80;;
68089;SDS011;54880;50.986;6.990;2022-07-29T01:47:31;5.63;;;1.95;;
68089;SDS011;54880;50.986;6.990;2022-07-29T01:49:56;7.30;;;2.38;;
68089;SDS011;54880;50.986;6.990;2022-07-29T01:52:24;7.00;;;2.45;;
68089;SDS011;54880;50.986;6.990;2022-07-29T01:54:52;8.23;;;2.00;;
68089;SDS011;54880;50.986;6.990;2022-07-29T01:57:19;8.68;;;2.22;;
68089;SDS011;54880;50.986;6.990;2022-07-29T01:59:46;7.32;;;1.90;;
68089;SDS011;54880;50.986;6.990;2022-07-29T02:02:12;9.52;;;1.88;;
68089;SDS011;54880;50.986;6.990;2022-07-29T02:04:38;6.45;;;2.00;;
68089;SDS011;54880;50.986;6.990;2022-07-29T02:07:05;6.50;;;1.83;;
68089;SDS011;54880;50.986;6.990;2022-07-29T02:09:33;8.40;;;2.25;;
68089;SDS011;54880;50.986;6.990;2022-07-29T02:11:59;8.43;;;2.20;;
68089;SDS011;54880;50.986;6.990;2022-07-29T02:14:26;11.25;;;2.30;;
68089;SDS011;54880;50.986;6.990;2022-07-29T02:16:52;7.95;;;1.67;;
68089;SDS011;54880;50.986;6.990;2022-07-29T02:19:19;7.28;;;1.98;;
68089;SDS011;54880;50.986;6.990;2022-07-29T02:21:46;7.55;;;1.88;;
68089;SDS011;54880;50.986;6.990;2022-07-29T02:24:12;7.90;;;2.05;;
68089;SDS011;54880;50.986;6.990;2022-07-29T02:26:39;7.40;;;2.05;;
68089;SDS011;54880;50.986;6.990;2022-07-29T02:29:05;7.38;;;2.10;;
68089;SDS011;54880;50.986;6.990;2022-07-29T02:31:32;6.57;;;1.88;;
68089;SDS011;54880;50.986;6.990;2022-07-29T02:33:58;6.93;;;1.73;;
68089;SDS011;54880;50.986;6.990;2022-07-29T02:36:25;6.53;;;2.13;;
68089;SDS011;54880;50.986;6.990;2022-07-29T02:38:51;6.10;;;1.97;;
68089;SDS011;54880;50.986;6.990;2022-07-29T02:41:18;12.55;;;2.17;;
68089;SDS011;54880;50.986;6.990;2022-07-29T02:43:45;8.30;;;2.40;;
68089;SDS011;54880;50.986;6.990;2022-07-29T02:46:13;8.75;;;2.20;;
68089;SDS011;54880;50.986;6.990;2022-07-29T02:48:41;6.60;;;1.90;;
68089;SDS011;54880;50.986;6.990;2022-07-29T02:51:12;7.55;;;1.90;;
68089;SDS011;54880;50.986;6.990;2022-07-29T02:53:38;7.10;;;1.77;;
68089;SDS011;54880;50.986;6.990;2022-07-29T02:56:14;7.80;;;2.13;;
68089;SDS011;54880;50.986;6.990;2022-07-29T02:58:45;8.13;;;2.15;;
68089;SDS011;54880;50.986;6.990;2022-07-29T03:01:13;7.93;;;2.20;;
68089;SDS011;54880;50.986;6.990;2022-07-29T03:03:39;9.38;;;2.60;;
68089;SDS011;54880;50.986;6.990;2022-07-29T03:06:07;7.90;;;2.40;;
68089;SDS011;54880;50.986;6.990;2022-07-29T03:08:33;6.40;;;2.03;;
68089;SDS011;54880;50.986;6.990;2022-07-29T03:10:59;6.43;;;1.87;;
68089;SDS011;54880;50.986;6.990;2022-07-29T03:13:25;6.93;;;2.03;;
68089;SDS011;54880;50.986;6.990;2022-07-29T03:15:51;9.82;;;2.22;;
68089;SDS011;54880;50.986;6.990;2022-07-29T03:18:17;7.83;;;2.17;;
68089;SDS011;54880;50.986;6.990;2022-07-29T03:20:42;8.38;;;2.25;;
68089;SDS011;54880;50.986;6.990;2022-07-29T03:23:08;9.27;;;2.50;;
68089;SDS011;54880;50.986;6.990;2022-07-29T03:25:34;10.18;;;2.22;;
68089;SDS011;54880;50.986;6.990;2022-07-29T03:27:59;9.90;;;1.90;;
68089;SDS011;54880;50.986;6.990;2022-07-29T03:30:24;7.40;;;2.20;;
68089;SDS011;54880;50.986;6.990;2022-07-29T03:32:50;6.10;;;2.17;;
68089;SDS011;54880;50.986;6.990;2022-07-29T03:35:15;7.90;;;2.45;;
68089;SDS011;54880;50.986;6.990;2022-07-29T03:37:44;8.50;;;2.13;;
68089;SDS011;54880;50.986;6.990;2022-07-29T03:40:10;6.72;;;2.63;;
68089;SDS011;54880;50.986;6.990;2022-07-29T03:42:37;8.60;;;2.25;;
68089;SDS011;54880;50.986;6.990;2022-07-29T03:45:08;9.70;;;2.27;;
68089;SDS011;54880;50.986;6.990;2022-07-29T03:47:35;9.70;;;2.53;;
68089;SDS011;54880;50.986;6.990;2022-07-29T03:50:07;7.53;;;2.30;;
68089;SDS011;54880;50.986;6.990;2022-07-29T03:52:33;6.32;;;2.20;;
68089;SDS011;54880;50.986;6.990;2022-07-29T03:54:59;9.23;;;2.50;;
68089;SDS011;54880;50.986;6.990;2022-07-29T03:57:25;9.63;;;2.57;;
68089;SDS011;54880;50.986;6.990;2022-07-29T03:59:52;10.60;;;2.25;;
68089;SDS011;54880;50.986;6.990;2022-07-29T04:02:18;7.65;;;2.45;;
68089;SDS011;54880;50.986;6.990;2022-07-29T04:04:43;10.13;;;2.25;;
68089;SDS011;54880;50.986;6.990;2022-07-29T04:07:11;11.93;;;2.80;;
68089;SDS011;54880;50.986;6.990;2022-07-29T04:09:37;9.82;;;3.10;;
68089;SDS011;54880;50.986;6.990;2022-07-29T04:12:02;11.00;;;2.67;;
68089;SDS011;54880;50.986;6.990;2022-07-29T04:14:27;10.73;;;2.80;;
68089;SDS011;54880;50.986;6.990;2022-07-29T04:16:52;9.00;;;2.90;;
68089;SDS011;54880;50.986;6.990;2022-07-29T04:19:18;9.33;;;2.20;;
68089;SDS011;54880;50.986;6.990;2022-07-29T04:21:43;11.40;;;2.60;;
68089;SDS011;54880;50.986;6.990;2022-07-29T04:24:10;7.50;;;2.20;;
68089;SDS011;54880;50.986;6.990;2022-07-29T04:26:35;12.20;;;2.73;;
68089;SDS011;54880;50.986;6.990;2022-07-29T04:29:00;9.57;;;2.30;;
68089;SDS011;54880;50.986;6.990;2022-07-29T04:31:25;14.30;;;2.47;;
68089;SDS011;54880;50.986;6.990;2022-07-29T04:33:51;10.17;;;2.87;;
68089;SDS011;54880;50.986;6.990;2022-07-29T04:36:16;10.97;;;3.00;;
68089;SDS011;54880;50.986;6.990;2022-07-29T04:38:41;8.90;;;2.30;;
68089;SDS011;54880;50.986;6.990;2022-07-29T04:41:06;11.20;;;2.90;;
68089;SDS011;54880;50.986;6.990;2022-07-29T04:43:33;9.25;;;2.40;;
68089;SDS011;54880;50.986;6.990;2022-07-29T04:45:59;10.20;;;2.73;;
68089;SDS011;54880;50.986;6.990;2022-07-29T04:48:25;14.60;;;2.70;;
68089;SDS011;54880;50.986;6.990;2022-07-29T04:50:50;7.50;;;2.00;;
68089;SDS011;54880;50.986;6.990;2022-07-29T04:53:15;8.57;;;2.20;;
68089;SDS011;54880;50.986;6.990;2022-07-29T04:55:41;9.02;;;2.20;;
68089;SDS011;54880;50.986;6.990;2022-07-29T04:58:06;6.40;;;2.10;;
68089;SDS011;54880;50.986;6.990;2022-07-29T05:00:32;7.03;;;2.15;;
68089;SDS011;54880;50.986;6.990;2022-07-29T05:02:57;13.20;;;2.30;;
68089;SDS011;54880;50.986;6.990;2022-07-29T05:05:23;9.70;;;2.13;;
68089;SDS011;54880;50.986;6.990;2022-07-29T05:07:48;10.43;;;2.10;;
68089;SDS011;54880;50.986;6.990;2022-07-29T05:10:13;8.43;;;2.30;;
68089;SDS011;54880;50.986;6.990;2022-07-29T05:12:38;5.97;;;2.00;;
68089;SDS011;54880;50.986;6.990;2022-07-29T05:15:04;9.07;;;2.15;;
68089;SDS011;54880;50.986;6.990;2022-07-29T05:17:29;10.25;;;2.45;;
68089;SDS011;54880;50.986;6.990;2022-07-29T05:19:54;8.80;;;2.03;;
68089;SDS011;54880;50.986;6.990;2022-07-29T05:22:20;6.70;;;1.60;;
68089;SDS011;54880;50.986;6.990;2022-07-29T05:24:45;10.00;;;2.47;;
68089;SDS011;54880;50.986;6.990;2022-07-29T05:27:11;10.13;;;2.80;;
68089;SDS011;54880;50.986;6.990;2022-07-29T05:29:36;14.67;;;2.30;;
68089;SDS011;54880;50.986;6.990;2022-07-29T05:32:02;7.63;;;2.33;;
68089;SDS011;54880;50.986;6.990;2022-07-29T05:34:27;9.77;;;2.20;;
68089;SDS011;54880;50.986;6.990;2022-07-29T05:36:52;7.20;;;2.10;;
68089;SDS011;54880;50.986;6.990;2022-07-29T05:39:18;8.13;;;2.25;;
68089;SDS011;54880;50.986;6.990;2022-07-29T05:41:43;7.10;;;2.00;;
68089;SDS011;54880;50.986;6.990;2022-07-29T05:44:08;8.30;;;2.30;;
68089;SDS011;54880;50.986;6.990;2022-07-29T05:46:34;5.80;;;2.10;;
68089;SDS011;54880;50.986;6.990;2022-07-29T05:48:59;8.53;;;2.30;;
68089;SDS011;54880;50.986;6.990;2022-07-29T05:51:24;8.23;;;2.20;;
68089;SDS011;54880;50.986;6.990;2022-07-29T05:53:49;8.17;;;2.20;;
68089;SDS011;54880;50.986;6.990;2022-07-29T05:56:15;9.77;;;1.97;;
68089;SDS011;54880;50.986;6.990;2022-07-29T05:58:40;10.20;;;2.50;;
68089;SDS011;54880;50.986;6.990;2022-07-29T06:01:06;8.50;;;2.13;;
68089;SDS011;54880;50.986;6.990;2022-07-29T06:03:31;8.00;;;2.78;;
68089;SDS011;54880;50.986;6.990;2022-07-29T06:05:56;7.90;;;2.20;;
68089;SDS011;54880;50.986;6.990;2022-07-29T06:08:22;9.90;;;2.40;;
68089;SDS011;54880;50.986;6.990;2022-07-29T06:10:48;9.00;;;2.08;;
68089;SDS011;54880;50.986;6.990;2022-07-29T06:13:13;9.43;;;2.57;;
68089;SDS011;54880;50.986;6.990;2022-07-29T06:15:41;11.40;;;2.38;;
68089;SDS011;54880;50.986;6.990;2022-07-29T06:18:06;8.90;;;2.43;;
68089;SDS011;54880;50.986;6.990;2022-07-29T06:20:34;8.95;;;1.95;;
68089;SDS011;54880;50.986;6.990;2022-07-29T06:22:59;7.23;;;2.20;;
68089;SDS011;54880;50.986;6.990;2022-07-29T06:25:25;10.80;;;2.20;;
68089;SDS011;54880;50.986;6.990;2022-07-29T06:27:50;10.52;;;2.15;;
68089;SDS011;54880;50.986;6.990;2022-07-29T06:30:15;7.70;;;2.00;;
68089;SDS011;54880;50.986;6.990;2022-07-29T06:32:40;9.43;;;2.10;;
68089;SDS011;54880;50.986;6.990;2022-07-29T06:35:06;7.97;;;2.20;;
68089;SDS011;54880;50.986;6.990;2022-07-29T06:37:31;8.07;;;2.40;;
68089;SDS011;54880;50.986;6.990;2022-07-29T06:39:56;8.23;;;2.43;;
68089;SDS011;54880;50.986;6.990;2022-07-29T06:42:43;9.40;;;2.60;;
68089;SDS011;54880;50.986;6.990;2022-07-29T06:45:09;10.48;;;2.35;;
68089;SDS011;54880;50.986;6.990;2022-07-29T06:47:35;9.63;;;2.57;;
68089;SDS011;54880;50.986;6.990;2022-07-29T06:50:00;10.43;;;2.58;;
68089;SDS011;54880;50.986;6.990;2022-07-29T06:52:25;8.80;;;2.10;;
68089;SDS011;54880;50.986;6.990;2022-07-29T06:54:50;11.35;;;2.53;;
68089;SDS011;54880;50.986;6.990;2022-07-29T06:57:16;9.70;;;2.53;;
68089;SDS011;54880;50.986;6.990;2022-07-29T06:59:41;8.53;;;2.50;;
68089;SDS011;54880;50.986;6.990;2022-07-29T07:02:06;8.03;;;2.50;;
68089;SDS011;54880;50.986;6.990;2022-07-29T07:04:32;11.40;;;2.30;;
68089;SDS011;54880;50.986;6.990;2022-07-29T07:06:58;12.05;;;2.42;;
68089;SDS011;54880;50.986;6.990;2022-07-29T07:09:24;11.30;;;2.22;;
68089;SDS011;54880;50.986;6.990;2022-07-29T07:11:49;8.97;;;2.27;;
68089;SDS011;54880;50.986;6.990;2022-07-29T07:14:15;8.60;;;2.30;;
68089;SDS011;54880;50.986;6.990;2022-07-29T07:16:40;9.93;;;2.50;;
68089;SDS011;54880;50.986;6.990;2022-07-29T07:19:06;9.27;;;2.57;;
68089;SDS011;54880;50.986;6.990;2022-07-29T07:21:32;7.70;;;2.20;;
68089;SDS011;54880;50.986;6.990;2022-07-29T07:23:57;10.32;;;3.20;;
68089;SDS011;54880;50.986;6.990;2022-07-29T07:26:23;13.25;;;2.97;;
68089;SDS011;54880;50.986;6.990;2022-07-29T07:28:48;9.50;;;2.63;;
68089;SDS011;54880;50.986;6.990;2022-07-29T07:31:13;12.07;;;2.80;;
68089;SDS011;54880;50.986;6.990;2022-07-29T07:33:39;8.40;;;2.67;;
68089;SDS011;54880;50.986;6.990;2022-07-29T07:36:04;10.00;;;2.43;;
68089;SDS011;54880;50.986;6.990;2022-07-29T07:38:29;11.77;;;2.53;;
68089;SDS011;54880;50.986;6.990;2022-07-29T07:40:55;8.35;;;2.15;;
68089;SDS011;54880;50.986;6.990;2022-07-29T07:43:20;11.27;;;2.40;;
68089;SDS011;54880;50.986;6.990;2022-07-29T07:45:46;9.77;;;2.50;;
68089;SDS011;54880;50.986;6.990;2022-07-29T07:48:12;10.87;;;2.73;;
68089;SDS011;54880;50.986;6.990;2022-07-29T07:50:37;10.77;;;2.73;;
68089;SDS011;54880;50.986;6.990;2022-07-29T07:53:02;11.40;;;2.17;;
68089;SDS011;54880;50.986;6.990;2022-07-29T07:55:27;8.87;;;2.40;;
68089;SDS011;54880;50.986;6.990;2022-07-29T07:57:53;10.73;;;2.17;;
68089;SDS011;54880;50.986;6.990;2022-07-29T08:00:18;7.85;;;2.40;;
68089;SDS011;54880;50.986;6.990;2022-07-29T08:02:44;10.80;;;2.67;;
68089;SDS011;54880;50.986;6.990;2022-07-29T08:05:10;10.25;;;2.53;;
68089;SDS011;54880;50.986;6.990;2022-07-29T08:07:36;11.35;;;2.70;;
68089;SDS011;54880;50.986;6.990;2022-07-29T08:10:02;10.27;;;2.57;;
68089;SDS011;54880;50.986;6.990;2022-07-29T08:12:28;11.77;;;2.70;;
68089;SDS011;54880;50.986;6.990;2022-07-29T08:14:53;10.70;;;2.47;;
68089;SDS011;54880;50.986;6.990;2022-07-29T08:17:19;12.18;;;2.42;;
68089;SDS011;54880;50.986;6.990;2022-07-29T08:19:44;12.90;;;2.80;;
68089;SDS011;54880;50.986;6.990;2022-07-29T08:22:09;9.53;;;2.77;;
68089;SDS011;54880;50.986;6.990;2022-07-29T08:24:35;11.43;;;2.73;;
68089;SDS011;54880;50.986;6.990;2022-07-29T08:27:09;10.45;;;2.83;;
68089;SDS011;54880;50.986;6.990;2022-07-29T08:29:35;8.45;;;2.40;;
68089;SDS011;54880;50.986;6.990;2022-07-29T08:32:00;9.47;;;2.60;;
68089;SDS011;54880;50.986;6.990;2022-07-29T08:34:25;10.27;;;2.73;;
68089;SDS011;54880;50.986;6.990;2022-07-29T08:36:51;9.70;;;2.57;;
68089;SDS011;54880;50.986;6.990;2022-07-29T08:39:16;10.40;;;2.78;;
68089;SDS011;54880;50.986;6.990;2022-07-29T08:41:42;8.43;;;2.60;;
68089;SDS011;54880;50.986;6.990;2022-07-29T08:44:07;8.97;;;2.57;;
68089;SDS011;54880;50.986;6.990;2022-07-29T08:46:34;9.32;;;2.92;;
68089;SDS011;54880;50.986;6.990;2022-07-29T08:49:02;13.23;;;2.90;;
68089;SDS011;54880;50.986;6.990;2022-07-29T08:51:27;9.07;;;2.63;;
68089;SDS011;54880;50.986;6.990;2022-07-29T08:53:52;8.95;;;2.90;;
68089;SDS011;54880;50.986;6.990;2022-07-29T08:56:19;11.70;;;2.75;;
68089;SDS011;54880;50.986;6.990;2022-07-29T08:58:46;10.55;;;3.10;;
68089;SDS011;54880;50.986;6.990;2022-07-29T09:01:16;12.55;;;3.08;;
68089;SDS011;54880;50.986;6.990;2022-07-29T09:03:41;11.13;;;2.90;;
68089;SDS011;54880;50.986;6.990;2022-07-29T09:06:08;9.63;;;2.63;;
68089;SDS011;54880;50.986;6.990;2022-07-29T09:08:34;11.13;;;2.63;;
68089;SDS011;54880;50.986;6.990;2022-07-29T09:11:02;10.50;;;2.65;;
68089;SDS011;54880;50.986;6.990;2022-07-29T09:13:31;10.60;;;2.90;;
68089;SDS011;54880;50.986;6.990;2022-07-29T09:15:56;10.20;;;2.70;;
68089;SDS011;54880;50.986;6.990;2022-07-29T09:18:32;7.97;;;2.88;;
68089;SDS011;54880;50.986;6.990;2022-07-29T09:20:58;8.57;;;3.25;;
68089;SDS011;54880;50.986;6.990;2022-07-29T09:23:59;9.95;;;3.17;;
68089;SDS011;54880;50.986;6.990;2022-07-29T09:26:27;9.73;;;3.20;;
68089;SDS011;54880;50.986;6.990;2022-07-29T09:28:52;10.95;;;3.65;;
68089;SDS011;54880;50.986;6.990;2022-07-29T09:31:18;9.67;;;3.33;;
68089;SDS011;54880;50.986;6.990;2022-07-29T09:33:51;16.23;;;3.97;;
68089;SDS011;54880;50.986;6.990;2022-07-29T09:36:17;11.52;;;3.70;;
68089;SDS011;54880;50.986;6.990;2022-07-29T09:38:42;12.93;;;3.20;;
68089;SDS011;54880;50.986;6.990;2022-07-29T09:41:07;10.93;;;3.60;;
68089;SDS011;54880;50.986;6.990;2022-07-29T09:43:35;11.13;;;4.20;;
68089;SDS011;54880;50.986;6.990;2022-07-29T09:46:13;12.05;;;3.50;;
68089;SDS011;54880;50.986;6.990;2022-07-29T09:48:38;16.38;;;3.90;;
68089;SDS011;54880;50.986;6.990;2022-07-29T09:51:03;10.57;;;3.40;;
68089;SDS011;54880;50.986;6.990;2022-07-29T09:55:59;14.05;;;3.60;;
68089;SDS011;54880;50.986;6.990;2022-07-29T09:58:24;11.63;;;3.90;;
68089;SDS011;54880;50.986;6.990;2022-07-29T10:00:50;11.93;;;3.63;;
68089;SDS011;54880;50.986;6.990;2022-07-29T10:03:16;9.48;;;3.75;;
68089;SDS011;54880;50.986;6.990;2022-07-29T10:05:42;11.65;;;3.83;;
68089;SDS011;54880;50.986;6.990;2022-07-29T10:08:07;10.70;;;3.23;;
68089;SDS011;54880;50.986;6.990;2022-07-29T10:10:34;8.85;;;3.15;;
68089;SDS011;54880;50.986;6.990;2022-07-29T10:13:04;12.50;;;3.55;;
68089;SDS011;54880;50.986;6.990;2022-07-29T10:15:30;17.20;;;3.38;;
68089;SDS011;54880;50.986;6.990;2022-07-29T10:17:57;13.85;;;3.45;;
68089;SDS011;54880;50.986;6.990;2022-07-29T10:20:23;13.93;;;4.03;;
68089;SDS011;54880;50.986;6.990;2022-07-29T10:22:49;13.43;;;3.55;;
68089;SDS011;54880;50.986;6.990;2022-07-29T10:25:15;10.47;;;3.37;;
68089;SDS011;54880;50.986;6.990;2022-07-29T10:27:41;10.15;;;3.60;;
68089;SDS011;54880;50.986;6.990;2022-07-29T10:30:07;13.23;;;3.20;;
68089;SDS011;54880;50.986;6.990;2022-07-29T10:43:18;13.10;;;4.10;;
68089;SDS011;54880;50.986;6.990;2022-07-29T10:45:45;12.50;;;3.17;;
68089;SDS011;54880;50.986;6.990;2022-07-29T10:48:12;12.43;;;2.95;;
68089;SDS011;54880;50.986;6.990;2022-07-29T10:53:18;10.23;;;2.80;;
68089;SDS011;54880;50.986;6.990;2022-07-29T10:55:44;9.83;;;2.97;;
68089;SDS011;54880;50.986;6.990;2022-07-29T11:00:43;10.90;;;3.30;;
68089;SDS011;54880;50.986;6.990;2022-07-29T11:03:09;12.87;;;3.90;;
68089;SDS011;54880;50.986;6.990;2022-07-29T11:05:53;9.23;;;3.97;;
68089;SDS011;54880;50.986;6.990;2022-07-29T11:08:19;8.73;;;3.25;;
68089;SDS011;54880;50.986;6.990;2022-07-29T11:10:48;9.57;;;3.50;;
68089;SDS011;54880;50.986;6.990;2022-07-29T11:13:33;9.45;;;3.00;;
68089;SDS011;54880;50.986;6.990;2022-07-29T11:15:59;9.33;;;2.63;;
68089;SDS011;54880;50.986;6.990;2022-07-29T11:18:25;8.10;;;2.70;;
68089;SDS011;54880;50.986;6.990;2022-07-29T11:20:51;10.60;;;3.00;;
68089;SDS011;54880;50.986;6.990;2022-07-29T11:31:15;9.48;;;2.90;;
68089;SDS011;54880;50.986;6.990;2022-07-29T11:33:41;11.05;;;3.40;;
68089;SDS011;54880;50.986;6.990;2022-07-29T11:36:10;11.63;;;3.67;;
68089;SDS011;54880;50.986;6.990;2022-07-29T11:38:35;12.98;;;2.88;;
68089;SDS011;54880;50.986;6.990;2022-07-29T11:43:45;7.97;;;2.77;;
68089;SDS011;54880;50.986;6.990;2022-07-29T11:46:10;6.50;;;2.60;;
68089;SDS011;54880;50.986;6.990;2022-07-29T11:48:36;9.60;;;2.97;;
68089;SDS011;54880;50.986;6.990;2022-07-29T11:51:01;8.30;;;3.10;;
68089;SDS011;54880;50.986;6.990;2022-07-29T11:53:34;9.70;;;3.05;;
68089;SDS011;54880;50.986;6.990;2022-07-29T11:56:00;8.32;;;2.90;;
68089;SDS011;54880;50.986;6.990;2022-07-29T11:58:26;8.37;;;2.73;;
68089;SDS011;54880;50.986;6.990;2022-07-29T12:00:52;12.00;;;3.38;;
68089;SDS011;54880;50.986;6.990;2022-07-29T12:03:23;9.70;;;2.70;;
68089;SDS011;54880;50.986;6.990;2022-07-29T12:05:48;10.65;;;2.92;;
68089;SDS011;54880;50.986;6.990;2022-07-29T12:08:15;8.10;;;2.83;;
68089;SDS011;54880;50.986;6.990;2022-07-29T12:10:41;9.43;;;2.88;;
68089;SDS011;54880;50.986;6.990;2022-07-29T12:13:07;8.27;;;2.60;;
68089;SDS011;54880;50.986;6.990;2022-07-29T12:15:33;9.00;;;2.72;;
68089;SDS011;54880;50.986;6.990;2022-07-29T12:17:58;9.03;;;2.90;;
68089;SDS011;54880;50.986;6.990;2022-07-29T12:20:29;8.87;;;2.73;;
68089;SDS011;54880;50.986;6.990;2022-07-29T12:22:57;8.50;;;2.60;;
68089;SDS011;54880;50.986;6.990;2022-07-29T12:25:23;7.23;;;2.63;;
68089;SDS011;54880;50.986;6.990;2022-07-29T12:27:58;7.40;;;2.80;;
68089;SDS011;54880;50.986;6.990;2022-07-29T12:30:23;8.30;;;2.60;;
68089;SDS011;54880;50.986;6.990;2022-07-29T12:32:58;8.75;;;2.30;;
68089;SDS011;54880;50.986;6.990;2022-07-29T12:35:24;7.83;;;2.80;;
68089;SDS011;54880;50.986;6.990;2022-07-29T12:37:49;7.10;;;2.55;;
68089;SDS011;54880;50.986;6.990;2022-07-29T12:40:17;9.50;;;2.70;;
68089;SDS011;54880;50.986;6.990;2022-07-29T12:45:30;10.10;;;2.65;;
68089;SDS011;54880;50.986;6.990;2022-07-29T12:47:56;7.25;;;2.50;;
68089;SDS011;54880;50.986;6.990;2022-07-29T12:50:21;11.70;;;3.17;;
68089;SDS011;54880;50.986;6.990;2022-07-29T12:52:46;7.77;;;2.60;;
68089;SDS011;54880;50.986;6.990;2022-07-29T12:55:12;7.97;;;2.55;;
68089;SDS011;54880;50.986;6.990;2022-07-29T12:57:45;7.07;;;2.37;;
68089;SDS011;54880;50.986;6.990;2022-07-29T13:00:11;9.52;;;2.80;;
68089;SDS011;54880;50.986;6.990;2022-07-29T13:02:38;8.73;;;2.97;;
68089;SDS011;54880;50.986;6.990;2022-07-29T13:05:04;8.50;;;2.50;;
68089;SDS011;54880;50.986;6.990;2022-07-29T13:07:30;9.85;;;3.08;;
68089;SDS011;54880;50.986;6.990;2022-07-29T13:12:38;8.73;;;2.47;;
68089;SDS011;54880;50.986;6.990;2022-07-29T13:15:14;7.30;;;2.50;;
68089;SDS011;54880;50.986;6.990;2022-07-29T13:17:40;7.00;;;2.40;;
68089;SDS011;54880;50.986;6.990;2022-07-29T13:20:08;8.02;;;2.35;;
68089;SDS011;54880;50.986;6.990;2022-07-29T13:22:37;8.52;;;3.00;;
68089;SDS011;54880;50.986;6.990;2022-07-29T13:25:03;8.53;;;2.57;;
68089;SDS011;54880;50.986;6.990;2022-07-29T13:27:29;7.78;;;2.67;;
68089;SDS011;54880;50.986;6.990;2022-07-29T13:29:55;11.20;;;2.40;;
68089;SDS011;54880;50.986;6.990;2022-07-29T13:32:22;9.20;;;2.35;;
68089;SDS011;54880;50.986;6.990;2022-07-29T13:34:48;8.43;;;2.60;;
68089;SDS011;54880;50.986;6.990;2022-07-29T13:37:13;9.50;;;3.30;;
68089;SDS011;54880;50.986;6.990;2022-07-29T13:39:38;9.90;;;3.37;;
68089;SDS011;54880;50.986;6.990;2022-07-29T13:42:04;9.93;;;3.03;;
68089;SDS011;54880;50.986;6.990;2022-07-29T13:44:31;7.97;;;3.50;;
68089;SDS011;54880;50.986;6.990;2022-07-29T13:46:56;10.87;;;3.53;;
68089;SDS011;54880;50.986;6.990;2022-07-29T13:49:23;11.40;;;3.77;;
68089;SDS011;54880;50.986;6.990;2022-07-29T13:51:49;11.70;;;3.50;;
68089;SDS011;54880;50.986;6.990;2022-07-29T13:54:14;11.07;;;3.90;;
68089;SDS011;54880;50.986;6.990;2022-07-29T13:56:40;9.43;;;3.97;;
68089;SDS011;54880;50.986;6.990;2022-07-29T13:59:05;10.20;;;4.10;;
68089;SDS011;54880;50.986;6.990;2022-07-29T14:01:30;13.53;;;4.00;;
68089;SDS011;54880;50.986;6.990;2022-07-29T14:03:55;15.43;;;3.60;;
68089;SDS011;54880;50.986;6.990;2022-07-29T14:06:21;9.80;;;3.40;;
68089;SDS011;54880;50.986;6.990;2022-07-29T14:08:46;10.87;;;3.47;;
68089;SDS011;54880;50.986;6.990;2022-07-29T14:11:11;11.43;;;3.37;;
68089;SDS011;54880;50.986;6.990;2022-07-29T14:13:37;10.93;;;2.97;;
68089;SDS011;54880;50.986;6.990;2022-07-29T14:16:02;12.50;;;3.30;;
68089;SDS011;54880;50.986;6.990;2022-07-29T14:18:27;13.73;;;3.50;;
68089;SDS011;54880;50.986;6.990;2022-07-29T14:20:53;13.47;;;3.90;;
68089;SDS011;54880;50.986;6.990;2022-07-29T14:23:21;10.37;;;3.10;;
68089;SDS011;54880;50.986;6.990;2022-07-29T14:25:46;11.77;;;3.90;;
68089;SDS011;54880;50.986;6.990;2022-07-29T14:28:12;9.50;;;3.57;;
68089;SDS011;54880;50.986;6.990;2022-07-29T14:30:38;13.52;;;3.30;;
68089;SDS011;54880;50.986;6.990;2022-07-29T14:33:03;8.83;;;3.30;;
68089;SDS011;54880;50.986;6.990;2022-07-29T14:35:28;8.17;;;3.33;;
68089;SDS011;54880;50.986;6.990;2022-07-29T14:37:54;10.37;;;3.67;;
68089;SDS011;54880;50.986;6.990;2022-07-29T14:40:19;10.83;;;3.37;;
68089;SDS011;54880;50.986;6.990;2022-07-29T14:42:44;10.70;;;3.53;;
68089;SDS011;54880;50.986;6.990;2022-07-29T14:45:09;7.53;;;2.90;;
68089;SDS011;54880;50.986;6.990;2022-07-29T14:47:35;10.37;;;3.43;;
68089;SDS011;54880;50.986;6.990;2022-07-29T14:50:00;11.93;;;3.50;;
68089;SDS011;54880;50.986;6.990;2022-07-29T14:52:26;11.67;;;3.50;;
68089;SDS011;54880;50.986;6.990;2022-07-29T14:54:51;10.97;;;3.40;;
68089;SDS011;54880;50.986;6.990;2022-07-29T14:57:16;8.93;;;3.20;;
68089;SDS011;54880;50.986;6.990;2022-07-29T14:59:41;10.37;;;3.10;;
68089;SDS011;54880;50.986;6.990;2022-07-29T15:02:07;13.63;;;3.83;;
68089;SDS011;54880;50.986;6.990;2022-07-29T15:04:32;10.23;;;3.27;;
68089;SDS011;54880;50.986;6.990;2022-07-29T15:06:57;9.07;;;3.00;;
68089;SDS011;54880;50.986;6.990;2022-07-29T15:09:23;9.03;;;3.47;;
68089;SDS011;54880;50.986;6.990;2022-07-29T15:11:48;10.52;;;3.40;;
68089;SDS011;54880;50.986;6.990;2022-07-29T15:14:13;9.20;;;3.30;;
68089;SDS011;54880;50.986;6.990;2022-07-29T15:16:39;6.83;;;3.23;;
68089;SDS011;54880;50.986;6.990;2022-07-29T15:19:05;9.52;;;3.10;;
68089;SDS011;54880;50.986;6.990;2022-07-29T15:21:30;9.53;;;3.17;;
68089;SDS011;54880;50.986;6.990;2022-07-29T15:23:56;8.07;;;3.07;;